BVN8549 KMEM-KHSV
Flight info
| Callsign | BVN8549 |
|---|---|
| Flight time | 0h 59m |
| Altitude | 7000 |
| Route | BBKNG7 KERMI |
| Aircraft | C208/L-SDFGR/C |
Departure
| Time | 2026-05-04 03:48 |
|---|---|
| Airport | Memphis International Airport (KMEM) |
Arrival
| Time | 2026-05-04 04:47 |
|---|---|
| Airport | Huntsville International Airport (KHSV) |
| Time | Latitude | Longitude | Altitude | Speed | Heading |
|---|---|---|---|---|---|
| 2026-05-04 03:29 | 35.06734 | -89.98327 | 329 ft | 0 kts | 115° |
| 2026-05-04 03:39 | 35.06723 | -89.98306 | 327 ft | 7 kts | 123° |
| 2026-05-04 03:39 | 35.06713 | -89.98220 | 327 ft | 14 kts | 65° |
| 2026-05-04 03:40 | 35.06729 | -89.98116 | 328 ft | 11 kts | 91° |
| 2026-05-04 03:40 | 35.06718 | -89.98043 | 329 ft | 9 kts | 129° |
| 2026-05-04 03:40 | 35.06648 | -89.98020 | 329 ft | 12 kts | 180° |
| 2026-05-04 03:40 | 35.06594 | -89.98023 | 329 ft | 1 kts | 199° |
| 2026-05-04 03:41 | 35.06581 | -89.98003 | 329 ft | 7 kts | 97° |
| 2026-05-04 03:41 | 35.06578 | -89.97912 | 329 ft | 14 kts | 90° |
| 2026-05-04 03:41 | 35.06565 | -89.97801 | 328 ft | 12 kts | 137° |
| 2026-05-04 03:41 | 35.06503 | -89.97791 | 329 ft | 10 kts | 180° |
| 2026-05-04 03:42 | 35.06414 | -89.97790 | 327 ft | 15 kts | 177° |
| 2026-05-04 03:42 | 35.06295 | -89.97787 | 329 ft | 19 kts | 177° |
| 2026-05-04 03:42 | 35.06153 | -89.97788 | 327 ft | 21 kts | 180° |
| 2026-05-04 03:42 | 35.06008 | -89.97789 | 329 ft | 20 kts | 178° |
| 2026-05-04 03:43 | 35.05879 | -89.97785 | 329 ft | 19 kts | 179° |
| 2026-05-04 03:43 | 35.05754 | -89.97784 | 330 ft | 18 kts | 179° |
| 2026-05-04 03:43 | 35.05634 | -89.97784 | 329 ft | 16 kts | 180° |
| 2026-05-04 03:43 | 35.05541 | -89.97783 | 328 ft | 15 kts | 180° |
| 2026-05-04 03:44 | 35.05450 | -89.97755 | 325 ft | 10 kts | 117° |
| 2026-05-04 03:44 | 35.05445 | -89.97734 | 327 ft | 0 kts | 96° |
| 2026-05-04 03:44 | 35.05445 | -89.97717 | 326 ft | 7 kts | 90° |
| 2026-05-04 03:45 | 35.05424 | -89.97624 | 323 ft | 13 kts | 150° |
| 2026-05-04 03:45 | 35.05393 | -89.97617 | 324 ft | 0 kts | 179° |
| 2026-05-04 03:45 | 35.05278 | -89.97614 | 323 ft | 40 kts | 179° |
| 2026-05-04 03:46 | 35.04857 | -89.97607 | 321 ft | 76 kts | 178° |
| 2026-05-04 03:46 | 35.04281 | -89.97590 | 374 ft | 88 kts | 178° |
| 2026-05-04 03:46 | 35.03671 | -89.97566 | 528 ft | 86 kts | 178° |
| 2026-05-04 03:46 | 35.03084 | -89.97546 | 682 ft | 85 kts | 179° |
| 2026-05-04 03:47 | 35.02483 | -89.97546 | 738 ft | 88 kts | 180° |
| 2026-05-04 03:47 | 35.01867 | -89.97529 | 767 ft | 89 kts | 178° |
| 2026-05-04 03:47 | 35.01255 | -89.97509 | 840 ft | 88 kts | 181° |
| 2026-05-04 03:47 | 35.00665 | -89.97392 | 898 ft | 88 kts | 163° |
| 2026-05-04 03:48 | 35.00129 | -89.97037 | 1048 ft | 90 kts | 146° |
| 2026-05-04 03:48 | 34.99665 | -89.96432 | 1168 ft | 106 kts | 128° |
| 2026-05-04 03:48 | 34.99408 | -89.95547 | 1351 ft | 121 kts | 93° |
| 2026-05-04 03:48 | 34.99456 | -89.94523 | 1569 ft | 120 kts | 111° |
| 2026-05-04 03:49 | 34.99265 | -89.93518 | 1806 ft | 124 kts | 109° |
| 2026-05-04 03:49 | 34.99129 | -89.92476 | 2034 ft | 126 kts | 107° |
| 2026-05-04 03:49 | 34.99045 | -89.91759 | 2191 ft | 127 kts | 106° |
| 2026-05-04 03:49 | 34.98961 | -89.90980 | 2359 ft | 129 kts | 105° |
| 2026-05-04 03:50 | 34.98848 | -89.89889 | 2587 ft | 130 kts | 104° |
| 2026-05-04 03:50 | 34.98737 | -89.88786 | 2804 ft | 132 kts | 103° |
| 2026-05-04 03:50 | 34.98625 | -89.87663 | 3027 ft | 134 kts | 102° |
| 2026-05-04 03:50 | 34.98511 | -89.86521 | 3254 ft | 137 kts | 103° |
| 2026-05-04 03:51 | 34.98396 | -89.85366 | 3473 ft | 138 kts | 101° |
| 2026-05-04 03:51 | 34.98280 | -89.84200 | 3695 ft | 139 kts | 100° |
| 2026-05-04 03:51 | 34.98160 | -89.83002 | 3887 ft | 145 kts | 99° |
| 2026-05-04 03:51 | 34.98034 | -89.81773 | 4069 ft | 147 kts | 99° |
| 2026-05-04 03:52 | 34.97909 | -89.80524 | 4250 ft | 149 kts | 99° |
| 2026-05-04 03:52 | 34.97781 | -89.79261 | 4431 ft | 151 kts | 98° |
| 2026-05-04 03:52 | 34.97653 | -89.77983 | 4614 ft | 152 kts | 98° |
| 2026-05-04 03:52 | 34.97524 | -89.76700 | 4794 ft | 153 kts | 97° |
| 2026-05-04 03:53 | 34.97395 | -89.75415 | 4969 ft | 153 kts | 97° |
| 2026-05-04 03:53 | 34.97265 | -89.74121 | 5147 ft | 154 kts | 97° |
| 2026-05-04 03:53 | 34.97135 | -89.72838 | 5318 ft | 155 kts | 97° |
| 2026-05-04 03:53 | 34.97002 | -89.71522 | 5529 ft | 153 kts | 96° |
| 2026-05-04 03:54 | 34.96871 | -89.70225 | 5688 ft | 155 kts | 96° |
| 2026-05-04 03:54 | 34.96741 | -89.68943 | 5868 ft | 154 kts | 96° |
| 2026-05-04 03:54 | 34.96611 | -89.67647 | 6041 ft | 154 kts | 96° |
| 2026-05-04 03:54 | 34.96480 | -89.66359 | 6216 ft | 153 kts | 96° |
| 2026-05-04 03:55 | 34.96350 | -89.65073 | 6395 ft | 152 kts | 96° |
| 2026-05-04 03:55 | 34.96221 | -89.63796 | 6558 ft | 152 kts | 95° |
| 2026-05-04 03:55 | 34.96090 | -89.62516 | 6713 ft | 152 kts | 96° |
| 2026-05-04 03:55 | 34.95961 | -89.61240 | 6876 ft | 152 kts | 96° |
| 2026-05-04 03:56 | 34.95830 | -89.59957 | 6983 ft | 156 kts | 96° |
| 2026-05-04 03:56 | 34.95688 | -89.58606 | 6996 ft | 164 kts | 96° |
| 2026-05-04 03:56 | 34.95541 | -89.57206 | 7001 ft | 169 kts | 96° |
| 2026-05-04 03:56 | 34.95396 | -89.55769 | 6998 ft | 172 kts | 95° |
| 2026-05-04 03:57 | 34.95254 | -89.54305 | 6994 ft | 175 kts | 96° |
| 2026-05-04 03:57 | 34.95102 | -89.52827 | 6999 ft | 176 kts | 96° |
| 2026-05-04 03:57 | 34.94949 | -89.51342 | 6994 ft | 177 kts | 96° |
| 2026-05-04 03:57 | 34.94794 | -89.49851 | 6998 ft | 178 kts | 96° |
| 2026-05-04 03:58 | 34.94486 | -89.46854 | 6994 ft | 179 kts | 96° |
| 2026-05-04 03:58 | 34.94331 | -89.45353 | 6994 ft | 179 kts | 96° |
| 2026-05-04 03:58 | 34.94177 | -89.43848 | 6995 ft | 179 kts | 96° |
| 2026-05-04 03:59 | 34.94026 | -89.42345 | 6994 ft | 179 kts | 95° |
| 2026-05-04 03:59 | 34.93876 | -89.40843 | 6997 ft | 178 kts | 96° |
| 2026-05-04 03:59 | 34.93721 | -89.39343 | 6998 ft | 178 kts | 96° |
| 2026-05-04 03:59 | 34.93564 | -89.37843 | 7002 ft | 178 kts | 96° |
| 2026-05-04 04:00 | 34.93408 | -89.36343 | 7000 ft | 178 kts | 96° |
| 2026-05-04 04:00 | 34.93253 | -89.34845 | 7000 ft | 178 kts | 96° |
| 2026-05-04 04:00 | 34.93097 | -89.33344 | 7002 ft | 179 kts | 96° |
| 2026-05-04 04:00 | 34.92940 | -89.31842 | 7002 ft | 179 kts | 96° |
| 2026-05-04 04:01 | 34.92785 | -89.30342 | 7003 ft | 178 kts | 96° |
| 2026-05-04 04:01 | 34.92628 | -89.28843 | 7002 ft | 179 kts | 96° |
| 2026-05-04 04:01 | 34.92471 | -89.27342 | 7001 ft | 178 kts | 96° |
| 2026-05-04 04:01 | 34.92315 | -89.25841 | 7002 ft | 179 kts | 96° |
| 2026-05-04 04:02 | 34.92157 | -89.24341 | 7002 ft | 179 kts | 96° |
| 2026-05-04 04:02 | 34.92000 | -89.22842 | 7007 ft | 178 kts | 96° |
| 2026-05-04 04:02 | 34.91843 | -89.21343 | 7009 ft | 178 kts | 96° |
| 2026-05-04 04:02 | 34.91686 | -89.19848 | 7009 ft | 178 kts | 96° |
| 2026-05-04 04:03 | 34.91528 | -89.18354 | 7011 ft | 178 kts | 96° |
| 2026-05-04 04:03 | 34.91371 | -89.16861 | 7008 ft | 178 kts | 96° |
| 2026-05-04 04:03 | 34.91214 | -89.15368 | 7009 ft | 178 kts | 96° |
| 2026-05-04 04:03 | 34.91056 | -89.13873 | 7008 ft | 178 kts | 96° |
| 2026-05-04 04:04 | 34.90898 | -89.12380 | 7005 ft | 178 kts | 96° |
| 2026-05-04 04:04 | 34.90740 | -89.10886 | 7005 ft | 178 kts | 96° |
| 2026-05-04 04:04 | 34.90582 | -89.09395 | 7006 ft | 178 kts | 96° |
| 2026-05-04 04:04 | 34.90424 | -89.07902 | 7011 ft | 178 kts | 96° |
| 2026-05-04 04:05 | 34.90265 | -89.06409 | 7014 ft | 178 kts | 96° |
| 2026-05-04 04:05 | 34.90107 | -89.04914 | 7015 ft | 178 kts | 96° |
| 2026-05-04 04:05 | 34.89947 | -89.03420 | 7015 ft | 178 kts | 96° |
| 2026-05-04 04:05 | 34.89787 | -89.01922 | 7016 ft | 178 kts | 96° |
| 2026-05-04 04:06 | 34.89628 | -89.00427 | 7015 ft | 178 kts | 96° |
| 2026-05-04 04:06 | 34.89468 | -88.98929 | 7016 ft | 178 kts | 96° |
| 2026-05-04 04:06 | 34.89307 | -88.97429 | 7015 ft | 178 kts | 96° |
| 2026-05-04 04:06 | 34.89148 | -88.95933 | 7015 ft | 178 kts | 96° |
| 2026-05-04 04:07 | 34.88987 | -88.94437 | 7018 ft | 178 kts | 96° |
| 2026-05-04 04:07 | 34.88827 | -88.92941 | 7021 ft | 178 kts | 96° |
| 2026-05-04 04:07 | 34.88666 | -88.91443 | 7022 ft | 178 kts | 96° |
| 2026-05-04 04:07 | 34.88507 | -88.89970 | 7023 ft | 178 kts | 96° |
| 2026-05-04 04:08 | 34.88346 | -88.88474 | 7024 ft | 178 kts | 96° |
| 2026-05-04 04:08 | 34.88185 | -88.86979 | 7022 ft | 178 kts | 96° |
| 2026-05-04 04:08 | 34.88023 | -88.85483 | 7024 ft | 178 kts | 96° |
| 2026-05-04 04:08 | 34.87861 | -88.83988 | 7026 ft | 178 kts | 96° |
| 2026-05-04 04:09 | 34.87700 | -88.82493 | 7027 ft | 178 kts | 96° |
| 2026-05-04 04:09 | 34.87538 | -88.81001 | 7028 ft | 178 kts | 96° |
| 2026-05-04 04:09 | 34.87376 | -88.79508 | 7026 ft | 177 kts | 96° |
| 2026-05-04 04:09 | 34.87215 | -88.78021 | 7029 ft | 177 kts | 96° |
| 2026-05-04 04:10 | 34.87053 | -88.76532 | 7030 ft | 178 kts | 96° |
| 2026-05-04 04:10 | 34.86891 | -88.75040 | 7031 ft | 178 kts | 96° |
| 2026-05-04 04:10 | 34.86727 | -88.73547 | 7030 ft | 178 kts | 96° |
| 2026-05-04 04:10 | 34.86565 | -88.72055 | 7032 ft | 178 kts | 96° |
| 2026-05-04 04:11 | 34.86402 | -88.70564 | 7034 ft | 178 kts | 97° |
| 2026-05-04 04:11 | 34.86239 | -88.69071 | 7034 ft | 178 kts | 96° |
| 2026-05-04 04:11 | 34.86076 | -88.67582 | 7035 ft | 178 kts | 96° |
| 2026-05-04 04:11 | 34.85913 | -88.66094 | 7035 ft | 177 kts | 97° |
| 2026-05-04 04:12 | 34.85749 | -88.64606 | 7033 ft | 178 kts | 96° |
| 2026-05-04 04:12 | 34.85585 | -88.63115 | 7034 ft | 178 kts | 96° |
| 2026-05-04 04:12 | 34.85422 | -88.61627 | 7034 ft | 177 kts | 96° |
| 2026-05-04 04:12 | 34.85258 | -88.60140 | 7034 ft | 177 kts | 96° |
| 2026-05-04 04:13 | 34.85094 | -88.58650 | 7034 ft | 177 kts | 97° |
| 2026-05-04 04:13 | 34.84930 | -88.57165 | 7031 ft | 177 kts | 96° |
| 2026-05-04 04:13 | 34.84766 | -88.55677 | 7034 ft | 177 kts | 96° |
| 2026-05-04 04:13 | 34.84601 | -88.54188 | 7034 ft | 177 kts | 97° |
| 2026-05-04 04:14 | 34.84436 | -88.52700 | 7034 ft | 177 kts | 96° |
| 2026-05-04 04:14 | 34.84271 | -88.51214 | 7033 ft | 177 kts | 96° |
| 2026-05-04 04:14 | 34.84107 | -88.49726 | 7033 ft | 177 kts | 97° |
| 2026-05-04 04:14 | 34.83940 | -88.48237 | 7032 ft | 178 kts | 97° |
| 2026-05-04 04:15 | 34.83775 | -88.46746 | 7030 ft | 178 kts | 96° |
| 2026-05-04 04:15 | 34.83608 | -88.45254 | 7030 ft | 178 kts | 97° |
| 2026-05-04 04:15 | 34.83442 | -88.43764 | 7030 ft | 178 kts | 97° |
| 2026-05-04 04:15 | 34.83276 | -88.42275 | 7027 ft | 178 kts | 96° |
| 2026-05-04 04:16 | 34.83110 | -88.40783 | 7030 ft | 178 kts | 97° |
| 2026-05-04 04:16 | 34.82945 | -88.39314 | 7030 ft | 178 kts | 96° |
| 2026-05-04 04:16 | 34.82779 | -88.37825 | 7029 ft | 178 kts | 97° |
| 2026-05-04 04:16 | 34.82611 | -88.36336 | 7027 ft | 178 kts | 97° |
| 2026-05-04 04:17 | 34.82444 | -88.34846 | 7029 ft | 178 kts | 97° |
| 2026-05-04 04:17 | 34.82276 | -88.33356 | 7028 ft | 178 kts | 97° |
| 2026-05-04 04:17 | 34.82110 | -88.31867 | 7026 ft | 178 kts | 97° |
| 2026-05-04 04:17 | 34.81941 | -88.30380 | 7029 ft | 178 kts | 97° |
| 2026-05-04 04:18 | 34.81773 | -88.28888 | 7029 ft | 178 kts | 97° |
| 2026-05-04 04:18 | 34.81606 | -88.27400 | 7027 ft | 178 kts | 97° |
| 2026-05-04 04:18 | 34.81437 | -88.25911 | 7028 ft | 178 kts | 97° |
| 2026-05-04 04:18 | 34.81268 | -88.24422 | 7028 ft | 178 kts | 97° |
| 2026-05-04 04:19 | 34.81100 | -88.22932 | 7026 ft | 177 kts | 97° |
| 2026-05-04 04:19 | 34.80931 | -88.21444 | 7028 ft | 178 kts | 97° |
| 2026-05-04 04:19 | 34.80762 | -88.19957 | 7028 ft | 178 kts | 97° |
| 2026-05-04 04:19 | 34.80593 | -88.18468 | 7028 ft | 177 kts | 97° |
| 2026-05-04 04:20 | 34.80424 | -88.16981 | 7024 ft | 178 kts | 97° |
| 2026-05-04 04:20 | 34.80254 | -88.15492 | 7030 ft | 178 kts | 97° |
| 2026-05-04 04:20 | 34.80084 | -88.14001 | 7009 ft | 179 kts | 97° |
| 2026-05-04 04:20 | 34.79913 | -88.12504 | 7008 ft | 178 kts | 97° |
| 2026-05-04 04:21 | 34.79742 | -88.11011 | 7008 ft | 178 kts | 97° |
| 2026-05-04 04:21 | 34.79572 | -88.09522 | 7008 ft | 178 kts | 97° |
| 2026-05-04 04:21 | 34.79402 | -88.08033 | 7009 ft | 177 kts | 97° |
| 2026-05-04 04:21 | 34.79231 | -88.06546 | 7010 ft | 178 kts | 97° |
| 2026-05-04 04:22 | 34.79061 | -88.05061 | 7008 ft | 177 kts | 97° |
| 2026-05-04 04:22 | 34.78948 | -88.04079 | 7009 ft | 177 kts | 97° |
| 2026-05-04 04:22 | 34.78777 | -88.02597 | 7007 ft | 177 kts | 97° |
| 2026-05-04 04:22 | 34.78606 | -88.01115 | 7013 ft | 177 kts | 97° |
| 2026-05-04 04:23 | 34.78436 | -87.99634 | 7011 ft | 177 kts | 97° |
| 2026-05-04 04:23 | 34.78265 | -87.98152 | 7011 ft | 177 kts | 97° |
| 2026-05-04 04:23 | 34.78094 | -87.96669 | 7012 ft | 177 kts | 97° |
| 2026-05-04 04:23 | 34.77923 | -87.95190 | 7012 ft | 177 kts | 97° |
| 2026-05-04 04:24 | 34.77752 | -87.93713 | 7013 ft | 177 kts | 97° |
| 2026-05-04 04:24 | 34.77580 | -87.92233 | 7012 ft | 177 kts | 97° |
| 2026-05-04 04:24 | 34.77409 | -87.90753 | 7013 ft | 176 kts | 97° |
| 2026-05-04 04:24 | 34.77237 | -87.89277 | 7014 ft | 177 kts | 97° |
| 2026-05-04 04:25 | 34.77065 | -87.87798 | 7014 ft | 177 kts | 97° |
| 2026-05-04 04:25 | 34.76894 | -87.86321 | 7014 ft | 176 kts | 97° |
| 2026-05-04 04:25 | 34.76721 | -87.84841 | 7015 ft | 177 kts | 97° |
| 2026-05-04 04:25 | 34.76549 | -87.83363 | 7015 ft | 177 kts | 97° |
| 2026-05-04 04:26 | 34.76376 | -87.81884 | 7016 ft | 177 kts | 97° |
| 2026-05-04 04:26 | 34.76203 | -87.80403 | 7016 ft | 177 kts | 97° |
| 2026-05-04 04:26 | 34.76030 | -87.78925 | 7016 ft | 176 kts | 97° |
| 2026-05-04 04:26 | 34.75857 | -87.77450 | 7017 ft | 176 kts | 97° |
| 2026-05-04 04:27 | 34.75684 | -87.75976 | 7017 ft | 176 kts | 97° |
| 2026-05-04 04:27 | 34.75511 | -87.74500 | 7017 ft | 176 kts | 97° |
| 2026-05-04 04:27 | 34.75338 | -87.73026 | 7018 ft | 176 kts | 97° |
| 2026-05-04 04:27 | 34.75165 | -87.71552 | 7018 ft | 176 kts | 97° |
| 2026-05-04 04:28 | 34.74991 | -87.70077 | 7020 ft | 176 kts | 97° |
| 2026-05-04 04:28 | 34.74817 | -87.68609 | 7021 ft | 175 kts | 97° |
| 2026-05-04 04:28 | 34.74644 | -87.67143 | 7021 ft | 175 kts | 97° |
| 2026-05-04 04:28 | 34.74471 | -87.65678 | 7021 ft | 175 kts | 97° |
| 2026-05-04 04:29 | 34.74300 | -87.64233 | 7020 ft | 175 kts | 97° |
| 2026-05-04 04:29 | 34.74128 | -87.62771 | 7020 ft | 175 kts | 97° |
| 2026-05-04 04:29 | 34.73955 | -87.61311 | 7020 ft | 175 kts | 97° |
| 2026-05-04 04:29 | 34.73781 | -87.59849 | 7020 ft | 175 kts | 97° |
| 2026-05-04 04:30 | 34.73607 | -87.58386 | 7020 ft | 175 kts | 97° |
| 2026-05-04 04:30 | 34.73434 | -87.56926 | 7019 ft | 175 kts | 97° |
| 2026-05-04 04:30 | 34.73260 | -87.55465 | 7020 ft | 175 kts | 97° |
| 2026-05-04 04:30 | 34.73085 | -87.54001 | 7020 ft | 175 kts | 97° |
| 2026-05-04 04:31 | 34.72911 | -87.52539 | 7020 ft | 175 kts | 97° |
| 2026-05-04 04:31 | 34.72736 | -87.51078 | 7020 ft | 175 kts | 97° |
| 2026-05-04 04:31 | 34.72562 | -87.49614 | 7020 ft | 175 kts | 97° |
| 2026-05-04 04:31 | 34.72386 | -87.48151 | 7020 ft | 175 kts | 97° |
| 2026-05-04 04:32 | 34.72212 | -87.46689 | 7020 ft | 175 kts | 97° |
| 2026-05-04 04:32 | 34.72036 | -87.45226 | 7019 ft | 175 kts | 97° |
| 2026-05-04 04:32 | 34.71860 | -87.43763 | 7019 ft | 175 kts | 97° |
| 2026-05-04 04:32 | 34.71685 | -87.42303 | 7019 ft | 175 kts | 97° |
| 2026-05-04 04:33 | 34.71509 | -87.40838 | 7019 ft | 175 kts | 97° |
| 2026-05-04 04:33 | 34.71333 | -87.39375 | 7021 ft | 175 kts | 97° |
| 2026-05-04 04:33 | 34.71157 | -87.37911 | 7021 ft | 175 kts | 97° |
| 2026-05-04 04:33 | 34.70980 | -87.36449 | 7022 ft | 175 kts | 97° |
| 2026-05-04 04:34 | 34.70804 | -87.34986 | 7021 ft | 175 kts | 97° |
| 2026-05-04 04:34 | 34.70626 | -87.33523 | 7021 ft | 175 kts | 97° |
| 2026-05-04 04:34 | 34.70449 | -87.32060 | 7021 ft | 175 kts | 97° |
| 2026-05-04 04:34 | 34.70273 | -87.30598 | 7022 ft | 175 kts | 97° |
| 2026-05-04 04:35 | 34.70095 | -87.29133 | 7022 ft | 175 kts | 97° |
| 2026-05-04 04:35 | 34.69917 | -87.27670 | 7022 ft | 175 kts | 97° |
| 2026-05-04 04:35 | 34.69740 | -87.26208 | 7022 ft | 175 kts | 97° |
| 2026-05-04 04:35 | 34.69561 | -87.24746 | 7025 ft | 175 kts | 97° |
| 2026-05-04 04:36 | 34.69382 | -87.23271 | 6878 ft | 175 kts | 97° |
| 2026-05-04 04:36 | 34.69206 | -87.21834 | 6698 ft | 170 kts | 97° |
| 2026-05-04 04:36 | 34.69040 | -87.20446 | 6525 ft | 167 kts | 97° |
| 2026-05-04 04:36 | 34.68872 | -87.19055 | 6344 ft | 166 kts | 98° |
| 2026-05-04 04:37 | 34.68363 | -87.14911 | 5825 ft | 164 kts | 98° |
| 2026-05-04 04:37 | 34.68196 | -87.13549 | 5697 ft | 162 kts | 98° |
| 2026-05-04 04:38 | 34.68032 | -87.12198 | 5570 ft | 161 kts | 98° |
| 2026-05-04 04:38 | 34.67866 | -87.10854 | 5440 ft | 161 kts | 98° |
| 2026-05-04 04:38 | 34.67702 | -87.09514 | 5320 ft | 160 kts | 98° |
| 2026-05-04 04:38 | 34.67537 | -87.08173 | 5204 ft | 160 kts | 98° |
| 2026-05-04 04:39 | 34.67372 | -87.06829 | 5073 ft | 161 kts | 98° |
| 2026-05-04 04:39 | 34.67206 | -87.05498 | 4950 ft | 158 kts | 98° |
| 2026-05-04 04:39 | 34.67045 | -87.04180 | 4802 ft | 158 kts | 98° |
| 2026-05-04 04:39 | 34.66880 | -87.02856 | 4622 ft | 158 kts | 99° |
| 2026-05-04 04:40 | 34.66717 | -87.01537 | 4442 ft | 157 kts | 99° |
| 2026-05-04 04:40 | 34.66555 | -87.00224 | 4263 ft | 157 kts | 99° |
| 2026-05-04 04:40 | 34.66394 | -86.98910 | 4086 ft | 157 kts | 99° |
| 2026-05-04 04:40 | 34.66290 | -86.97589 | 3921 ft | 157 kts | 94° |
| 2026-05-04 04:41 | 34.66309 | -86.96269 | 3780 ft | 156 kts | 87° |
| 2026-05-04 04:41 | 34.66393 | -86.94951 | 3615 ft | 157 kts | 85° |
| 2026-05-04 04:41 | 34.66510 | -86.93638 | 3483 ft | 154 kts | 84° |
| 2026-05-04 04:41 | 34.66649 | -86.92350 | 3361 ft | 153 kts | 83° |
| 2026-05-04 04:42 | 34.66809 | -86.91082 | 3240 ft | 153 kts | 82° |
| 2026-05-04 04:42 | 34.66997 | -86.89805 | 3062 ft | 154 kts | 81° |
| 2026-05-04 04:42 | 34.67172 | -86.88529 | 2794 ft | 154 kts | 83° |
| 2026-05-04 04:42 | 34.67310 | -86.87243 | 2533 ft | 152 kts | 85° |
| 2026-05-04 04:43 | 34.67417 | -86.85979 | 2310 ft | 150 kts | 88° |
| 2026-05-04 04:43 | 34.67484 | -86.84728 | 2104 ft | 146 kts | 90° |
| 2026-05-04 04:43 | 34.67523 | -86.83505 | 1907 ft | 142 kts | 91° |
| 2026-05-04 04:43 | 34.67519 | -86.82410 | 1840 ft | 121 kts | 95° |
| 2026-05-04 04:44 | 34.67491 | -86.81392 | 1699 ft | 121 kts | 95° |
| 2026-05-04 04:44 | 34.67443 | -86.80395 | 1541 ft | 110 kts | 97° |
| 2026-05-04 04:44 | 34.67305 | -86.79575 | 1405 ft | 90 kts | 114° |
| 2026-05-04 04:44 | 34.67020 | -86.78968 | 1258 ft | 79 kts | 130° |
| 2026-05-04 04:45 | 34.66641 | -86.78493 | 1058 ft | 78 kts | 146° |
| 2026-05-04 04:45 | 34.66159 | -86.78236 | 910 ft | 75 kts | 168° |
| 2026-05-04 04:45 | 34.65642 | -86.78202 | 753 ft | 73 kts | 178° |
| 2026-05-04 04:47 | 34.64178 | -86.78048 | 617 ft | 6 kts | 92° |
| 2026-05-04 04:47 | 34.64176 | -86.77967 | 617 ft | 14 kts | 90° |
| 2026-05-04 04:47 | 34.64176 | -86.77815 | 617 ft | 22 kts | 93° |
| 2026-05-04 04:47 | 34.64172 | -86.77648 | 617 ft | 18 kts | 91° |
| 2026-05-04 04:48 | 34.64170 | -86.77514 | 617 ft | 14 kts | 90° |
| 2026-05-04 04:49 | 34.64161 | -86.76816 | 617 ft | 26 kts | 90° |
| 2026-05-04 04:49 | 34.64157 | -86.76633 | 615 ft | 16 kts | 91° |
| 2026-05-04 04:49 | 34.64156 | -86.76486 | 615 ft | 20 kts | 91° |
| 2026-05-04 04:49 | 34.64183 | -86.76349 | 619 ft | 14 kts | 17° |
| 2026-05-04 04:50 | 34.64200 | -86.76282 | 617 ft | 3 kts | 125° |
| 2026-05-04 04:50 | 34.64190 | -86.76265 | 620 ft | 0 kts | 123° |